sensor_id;sensor_type;location;lat;lon;timestamp;pressure;altitude;pressure_sealevel;temperature;humidity
48848;BME280;36611;51.638;5.784;2022-10-16T00:01:38;100910.53;;;17.06;61.33
48848;BME280;36611;51.638;5.784;2022-10-16T00:04:08;100910.53;;;17.06;61.26
48848;BME280;36611;51.638;5.784;2022-10-16T00:06:34;100907.84;;;17.06;61.24
48848;BME280;36611;51.638;5.784;2022-10-16T00:09:01;100910.53;;;17.06;61.21
48848;BME280;36611;51.638;5.784;2022-10-16T00:11:30;100906.81;;;17.07;61.23
48848;BME280;36611;51.638;5.784;2022-10-16T00:14:07;100912.25;;;17.07;61.30
48848;BME280;36611;51.638;5.784;2022-10-16T00:16:34;100898.69;;;17.07;61.25
48848;BME280;36611;51.638;5.784;2022-10-16T00:19:02;100888.84;;;17.06;61.50
48848;BME280;36611;51.638;5.784;2022-10-16T00:21:29;100896.13;;;17.06;61.27
48848;BME280;36611;51.638;5.784;2022-10-16T00:24:05;100905.13;;;17.06;61.76
48848;BME280;36611;51.638;5.784;2022-10-16T00:26:34;100910.41;;;17.08;61.64
48848;BME280;36611;51.638;5.784;2022-10-16T00:29:01;100905.97;;;17.07;61.39
48848;BME280;36611;51.638;5.784;2022-10-16T00:31:28;100912.41;;;17.06;61.72
48848;BME280;36611;51.638;5.784;2022-10-16T00:33:56;100904.25;;;17.06;61.60
48848;BME280;36611;51.638;5.784;2022-10-16T00:36:24;100907.97;;;17.05;61.76
48848;BME280;36611;51.638;5.784;2022-10-16T00:38:53;100911.41;;;17.07;61.64
48848;BME280;36611;51.638;5.784;2022-10-16T00:41:22;100906.13;;;17.05;61.70
48848;BME280;36611;51.638;5.784;2022-10-16T00:46:25;100902.00;;;17.01;61.67
48848;BME280;36611;51.638;5.784;2022-10-16T00:48:58;100902.84;;;17.02;61.45
48848;BME280;36611;51.638;5.784;2022-10-16T00:51:30;100908.28;;;17.02;61.39
48848;BME280;36611;51.638;5.784;2022-10-16T00:54:06;100910.00;;;17.03;61.79
48848;BME280;36611;51.638;5.784;2022-10-16T00:56:34;100910.13;;;17.01;61.59
48848;BME280;36611;51.638;5.784;2022-10-16T00:59:03;100910.13;;;17.01;61.46
48848;BME280;36611;51.638;5.784;2022-10-16T01:01:33;100906.56;;;17.01;61.53
48848;BME280;36611;51.638;5.784;2022-10-16T01:04:02;100912.84;;;17.01;61.63
48848;BME280;36611;51.638;5.784;2022-10-16T01:06:46;100909.28;;;17.01;61.70
48848;BME280;36611;51.638;5.784;2022-10-16T01:09:31;100906.56;;;17.01;61.37
48848;BME280;36611;51.638;5.784;2022-10-16T01:12:09;100911.16;;;17.00;61.40
48848;BME280;36611;51.638;5.784;2022-10-16T01:14:46;100906.72;;;16.99;61.67
48848;BME280;36611;51.638;5.784;2022-10-16T01:17:34;100896.88;;;16.98;61.63
48848;BME280;36611;51.638;5.784;2022-10-16T01:20:26;100895.47;;;16.94;61.57
48848;BME280;36611;51.638;5.784;2022-10-16T01:23:04;100897.47;;;16.92;61.39
48848;BME280;36611;51.638;5.784;2022-10-16T01:28:39;100898.63;;;16.90;61.60
48848;BME280;36611;51.638;5.784;2022-10-16T01:31:09;100910.63;;;16.87;61.67
48848;BME280;36611;51.638;5.784;2022-10-16T01:37:41;100909.91;;;16.85;61.58
48848;BME280;36611;51.638;5.784;2022-10-16T01:40:15;100911.91;;;16.83;61.93
48848;BME280;36611;51.638;5.784;2022-10-16T01:42:47;100907.34;;;16.83;62.10
48848;BME280;36611;51.638;5.784;2022-10-16T01:45:17;100908.22;;;16.84;62.07
48848;BME280;36611;51.638;5.784;2022-10-16T01:47:46;100908.22;;;16.84;62.13
48848;BME280;36611;51.638;5.784;2022-10-16T01:50:15;100911.63;;;16.86;61.91
48848;BME280;36611;51.638;5.784;2022-10-16T01:52:45;100921.47;;;16.87;62.07
48848;BME280;36611;51.638;5.784;2022-10-16T01:55:18;100911.31;;;16.89;62.02
48848;BME280;36611;51.638;5.784;2022-10-16T01:57:48;100914.75;;;16.91;61.85
48848;BME280;36611;51.638;5.784;2022-10-16T02:00:17;100914.75;;;16.91;61.99
48848;BME280;36611;51.638;5.784;2022-10-16T02:02:49;100912.91;;;16.92;62.22
48848;BME280;36611;51.638;5.784;2022-10-16T02:05:27;100920.03;;;16.93;62.04
48848;BME280;36611;51.638;5.784;2022-10-16T02:07:54;100910.03;;;16.93;62.19
48848;BME280;36611;51.638;5.784;2022-10-16T02:10:23;100918.03;;;16.95;62.32
48848;BME280;36611;51.638;5.784;2022-10-16T02:12:59;100924.31;;;16.95;62.03
48848;BME280;36611;51.638;5.784;2022-10-16T02:15:28;100924.16;;;16.97;62.29
48848;BME280;36611;51.638;5.784;2022-10-16T02:17:54;100924.84;;;16.99;62.22
48848;BME280;36611;51.638;5.784;2022-10-16T02:20:25;100932.84;;;17.00;62.19
48848;BME280;36611;51.638;5.784;2022-10-16T02:22:53;100924.41;;;17.03;61.97
48848;BME280;36611;51.638;5.784;2022-10-16T02:25:30;100928.13;;;17.02;62.21
48848;BME280;36611;51.638;5.784;2022-10-16T02:28:06;100930.84;;;17.02;62.02
48848;BME280;36611;51.638;5.784;2022-10-16T02:30:40;100920.13;;;17.01;62.16
48848;BME280;36611;51.638;5.784;2022-10-16T02:33:10;100913.84;;;17.00;62.06
48848;BME280;36611;51.638;5.784;2022-10-16T02:35:41;100913.00;;;17.00;62.22
48848;BME280;36611;51.638;5.784;2022-10-16T02:38:09;100913.16;;;16.98;62.33
48848;BME280;36611;51.638;5.784;2022-10-16T02:40:41;100910.44;;;16.98;62.44
48848;BME280;36611;51.638;5.784;2022-10-16T02:43:09;100910.44;;;16.98;62.10
48848;BME280;36611;51.638;5.784;2022-10-16T02:45:37;100910.59;;;16.97;61.70
48848;BME280;36611;51.638;5.784;2022-10-16T02:48:04;100919.72;;;16.96;61.89
48848;BME280;36611;51.638;5.784;2022-10-16T02:50:31;100931.03;;;16.91;62.28
48848;BME280;36611;51.638;5.784;2022-10-16T02:52:57;100925.75;;;16.90;62.17
48848;BME280;36611;51.638;5.784;2022-10-16T02:55:25;100923.19;;;16.88;62.23
48848;BME280;36611;51.638;5.784;2022-10-16T02:57:52;100925.19;;;16.86;62.11
48848;BME280;36611;51.638;5.784;2022-10-16T03:00:20;100913.47;;;16.86;61.75
48848;BME280;36611;51.638;5.784;2022-10-16T03:02:46;100916.34;;;16.84;62.17
48848;BME280;36611;51.638;5.784;2022-10-16T03:05:14;100899.38;;;16.82;61.94
48848;BME280;36611;51.638;5.784;2022-10-16T03:07:41;100903.94;;;16.81;62.08
48848;BME280;36611;51.638;5.784;2022-10-16T03:10:08;100897.66;;;16.81;62.20
48848;BME280;36611;51.638;5.784;2022-10-16T03:12:34;100921.22;;;16.80;62.22
48848;BME280;36611;51.638;5.784;2022-10-16T03:15:02;100921.34;;;16.79;61.90
48848;BME280;36611;51.638;5.784;2022-10-16T03:17:29;100927.78;;;16.78;62.15
48848;BME280;36611;51.638;5.784;2022-10-16T03:19:56;100935.06;;;16.77;62.18
48848;BME280;36611;51.638;5.784;2022-10-16T03:22:22;100939.63;;;16.77;61.92
48848;BME280;36611;51.638;5.784;2022-10-16T03:24:52;100928.94;;;16.75;62.22
48848;BME280;36611;51.638;5.784;2022-10-16T03:27:18;100927.22;;;16.74;62.01
48848;BME280;36611;51.638;5.784;2022-10-16T03:29:45;100940.94;;;16.73;61.82
48848;BME280;36611;51.638;5.784;2022-10-16T03:32:11;100956.34;;;16.72;61.74
48848;BME280;36611;51.638;5.784;2022-10-16T03:34:42;100944.66;;;16.72;62.11
48848;BME280;36611;51.638;5.784;2022-10-16T03:37:09;100951.94;;;16.71;62.14
48848;BME280;36611;51.638;5.784;2022-10-16T03:39:35;100952.94;;;16.70;62.21
48848;BME280;36611;51.638;5.784;2022-10-16T03:42:02;100957.63;;;16.68;61.77
48848;BME280;36611;51.638;5.784;2022-10-16T03:44:33;100959.75;;;16.65;62.05
48848;BME280;36611;51.638;5.784;2022-10-16T03:47:00;100955.47;;;16.62;62.04
48848;BME280;36611;51.638;5.784;2022-10-16T03:49:26;100954.91;;;16.59;62.34
48848;BME280;36611;51.638;5.784;2022-10-16T03:51:53;100955.19;;;16.56;61.93
48848;BME280;36611;51.638;5.784;2022-10-16T03:54:21;100957.91;;;16.56;62.10
48848;BME280;36611;51.638;5.784;2022-10-16T03:56:48;100961.63;;;16.55;61.98
48848;BME280;36611;51.638;5.784;2022-10-16T03:59:15;100960.63;;;16.56;61.90
48848;BME280;36611;51.638;5.784;2022-10-16T04:01:41;100963.34;;;16.56;62.40
48848;BME280;36611;51.638;5.784;2022-10-16T04:04:14;100964.34;;;16.55;62.42
48848;BME280;36611;51.638;5.784;2022-10-16T04:06:40;100967.91;;;16.55;62.42
48848;BME280;36611;51.638;5.784;2022-10-16T04:09:07;100962.47;;;16.55;62.49
48848;BME280;36611;51.638;5.784;2022-10-16T04:11:33;100972.19;;;16.58;62.25
48848;BME280;36611;51.638;5.784;2022-10-16T04:14:02;100968.47;;;16.59;62.04
48848;BME280;36611;51.638;5.784;2022-10-16T04:16:29;100965.91;;;16.57;62.19
48848;BME280;36611;51.638;5.784;2022-10-16T04:18:55;100966.03;;;16.56;62.42
48848;BME280;36611;51.638;5.784;2022-10-16T04:21:22;100971.63;;;16.54;62.29
48848;BME280;36611;51.638;5.784;2022-10-16T04:23:48;100973.47;;;16.53;62.59
48848;BME280;36611;51.638;5.784;2022-10-16T04:26:34;100973.47;;;16.53;62.10
48848;BME280;36611;51.638;5.784;2022-10-16T04:29:00;100972.63;;;16.53;62.60
48848;BME280;36611;51.638;5.784;2022-10-16T04:31:27;100987.16;;;16.52;62.67
48848;BME280;36611;51.638;5.784;2022-10-16T04:33:57;100985.31;;;16.52;62.31
48848;BME280;36611;51.638;5.784;2022-10-16T04:36:24;100983.47;;;16.53;62.65
48848;BME280;36611;51.638;5.784;2022-10-16T04:38:54;100981.59;;;16.53;62.70
48848;BME280;36611;51.638;5.784;2022-10-16T04:41:21;100986.03;;;16.55;62.69
48848;BME280;36611;51.638;5.784;2022-10-16T04:43:47;100984.16;;;16.55;62.35
48848;BME280;36611;51.638;5.784;2022-10-16T04:46:22;100992.31;;;16.55;62.70
48848;BME280;36611;51.638;5.784;2022-10-16T04:48:49;100996.88;;;16.55;62.67
48848;BME280;36611;51.638;5.784;2022-10-16T04:51:15;100990.59;;;16.54;62.41
48848;BME280;36611;51.638;5.784;2022-10-16T04:53:42;100989.75;;;16.53;62.66
48848;BME280;36611;51.638;5.784;2022-10-16T04:56:10;100992.44;;;16.53;62.74
48848;BME280;36611;51.638;5.784;2022-10-16T04:58:36;101002.44;;;16.53;62.47
48848;BME280;36611;51.638;5.784;2022-10-16T05:01:03;101004.28;;;16.52;62.59
48848;BME280;36611;51.638;5.784;2022-10-16T05:03:29;101002.44;;;16.53;62.65
48848;BME280;36611;51.638;5.784;2022-10-16T05:05:56;101005.16;;;16.53;62.71
48848;BME280;36611;51.638;5.784;2022-10-16T05:08:23;101006.00;;;16.53;62.64
48848;BME280;36611;51.638;5.784;2022-10-16T05:10:49;101007.00;;;16.52;62.88
48848;BME280;36611;51.638;5.784;2022-10-16T05:13:16;101008.00;;;16.51;62.94
48848;BME280;36611;51.638;5.784;2022-10-16T05:15:47;101010.72;;;16.51;62.82
48848;BME280;36611;51.638;5.784;2022-10-16T05:18:15;101015.28;;;16.51;62.94
48848;BME280;36611;51.638;5.784;2022-10-16T05:20:42;101016.13;;;16.51;62.66
48848;BME280;36611;51.638;5.784;2022-10-16T05:23:09;101018.00;;;16.51;62.71
48848;BME280;36611;51.638;5.784;2022-10-16T05:25:54;101029.84;;;16.50;63.05
48848;BME280;36611;51.638;5.784;2022-10-16T05:28:21;101030.84;;;16.49;62.88
48848;BME280;36611;51.638;5.784;2022-10-16T05:30:48;101038.81;;;16.50;62.90
48848;BME280;36611;51.638;5.784;2022-10-16T05:33:15;101039.81;;;16.49;63.00
48848;BME280;36611;51.638;5.784;2022-10-16T05:35:43;101040.81;;;16.48;62.87
48848;BME280;36611;51.638;5.784;2022-10-16T05:38:10;101041.69;;;16.49;63.03
48848;BME280;36611;51.638;5.784;2022-10-16T05:40:36;101046.25;;;16.48;62.77
48848;BME280;36611;51.638;5.784;2022-10-16T05:43:03;101051.66;;;16.48;62.79
48848;BME280;36611;51.638;5.784;2022-10-16T05:45:41;101051.66;;;16.48;62.85
48848;BME280;36611;51.638;5.784;2022-10-16T05:48:08;101063.50;;;16.47;63.09
48848;BME280;36611;51.638;5.784;2022-10-16T05:50:34;101066.22;;;16.47;62.67
48848;BME280;36611;51.638;5.784;2022-10-16T05:53:01;101069.94;;;16.46;63.00
48848;BME280;36611;51.638;5.784;2022-10-16T05:55:27;101081.63;;;16.47;62.93
48848;BME280;36611;51.638;5.784;2022-10-16T05:57:54;101095.31;;;16.45;62.74
48848;BME280;36611;51.638;5.784;2022-10-16T06:00:21;101099.03;;;16.44;63.13
48848;BME280;36611;51.638;5.784;2022-10-16T06:02:47;101117.00;;;16.45;63.08
48848;BME280;36611;51.638;5.784;2022-10-16T06:05:16;101108.88;;;16.45;62.87
48848;BME280;36611;51.638;5.784;2022-10-16T06:07:43;101117.00;;;16.45;62.86
48848;BME280;36611;51.638;5.784;2022-10-16T06:10:09;101120.72;;;16.44;62.48
48848;BME280;36611;51.638;5.784;2022-10-16T06:12:36;101118.16;;;16.43;62.55
48848;BME280;36611;51.638;5.784;2022-10-16T06:15:04;101130.00;;;16.42;62.56
48848;BME280;36611;51.638;5.784;2022-10-16T06:17:31;101131.84;;;16.41;63.10
48848;BME280;36611;51.638;5.784;2022-10-16T06:19:57;101132.69;;;16.42;62.88
48848;BME280;36611;51.638;5.784;2022-10-16T06:22:24;101135.56;;;16.40;62.80
48848;BME280;36611;51.638;5.784;2022-10-16T06:24:50;101132.97;;;16.39;62.72
48848;BME280;36611;51.638;5.784;2022-10-16T06:27:17;101144.97;;;16.36;63.05
48848;BME280;36611;51.638;5.784;2022-10-16T06:29:43;101143.25;;;16.35;63.04
48848;BME280;36611;51.638;5.784;2022-10-16T06:32:11;101146.81;;;16.36;62.93
48848;BME280;36611;51.638;5.784;2022-10-16T06:34:38;101144.09;;;16.36;62.98
48848;BME280;36611;51.638;5.784;2022-10-16T06:37:09;101151.38;;;16.35;63.11
48848;BME280;36611;51.638;5.784;2022-10-16T06:39:36;101152.22;;;16.36;63.14
48848;BME280;36611;51.638;5.784;2022-10-16T06:42:02;101155.81;;;16.36;62.66
48848;BME280;36611;51.638;5.784;2022-10-16T06:44:39;101156.53;;;16.38;62.92
48848;BME280;36611;51.638;5.784;2022-10-16T06:47:05;101162.09;;;16.37;63.07
48848;BME280;36611;51.638;5.784;2022-10-16T06:49:32;101173.06;;;16.35;62.93
48848;BME280;36611;51.638;5.784;2022-10-16T06:51:59;101178.59;;;16.34;62.81
48848;BME280;36611;51.638;5.784;2022-10-16T06:54:28;101178.59;;;16.34;63.21
48848;BME280;36611;51.638;5.784;2022-10-16T06:56:55;101179.19;;;16.37;63.26
48848;BME280;36611;51.638;5.784;2022-10-16T06:59:22;101183.22;;;16.43;63.52
48848;BME280;36611;51.638;5.784;2022-10-16T07:01:49;101187.22;;;16.48;63.50
48848;BME280;36611;51.638;5.784;2022-10-16T07:04:17;101185.66;;;16.56;63.51
48848;BME280;36611;51.638;5.784;2022-10-16T07:06:43;101193.84;;;16.65;63.91
48848;BME280;36611;51.638;5.784;2022-10-16T07:09:10;101199.56;;;16.72;63.66
48848;BME280;36611;51.638;5.784;2022-10-16T07:11:38;101204.44;;;16.78;63.78
48848;BME280;36611;51.638;5.784;2022-10-16T07:14:18;101206.59;;;16.84;63.51
48848;BME280;36611;51.638;5.784;2022-10-16T07:16:45;101211.44;;;16.90;63.56
48848;BME280;36611;51.638;5.784;2022-10-16T07:19:13;101220.03;;;16.95;63.33
48848;BME280;36611;51.638;5.784;2022-10-16T07:21:41;101213.47;;;16.98;63.51
48848;BME280;36611;51.638;5.784;2022-10-16T07:24:15;101217.88;;;16.99;63.18
48848;BME280;36611;51.638;5.784;2022-10-16T07:26:43;101226.75;;;17.01;63.34
48848;BME280;36611;51.638;5.784;2022-10-16T07:29:15;101231.88;;;17.04;63.12
48848;BME280;36611;51.638;5.784;2022-10-16T07:31:43;101245.16;;;17.07;63.41
48848;BME280;36611;51.638;5.784;2022-10-16T07:34:16;101239.59;;;17.08;63.18
48848;BME280;36611;51.638;5.784;2022-10-16T07:36:43;101242.22;;;17.10;63.19
48848;BME280;36611;51.638;5.784;2022-10-16T07:39:10;101249.34;;;17.11;63.53
48848;BME280;36611;51.638;5.784;2022-10-16T07:41:36;101252.78;;;17.13;63.23
48848;BME280;36611;51.638;5.784;2022-10-16T07:44:07;101248.94;;;17.15;63.22
48848;BME280;36611;51.638;5.784;2022-10-16T07:46:35;101260.50;;;17.18;63.26
48848;BME280;36611;51.638;5.784;2022-10-16T07:49:03;101262.94;;;17.21;63.40
48848;BME280;36611;51.638;5.784;2022-10-16T07:51:29;101271.66;;;17.24;63.30
48848;BME280;36611;51.638;5.784;2022-10-16T07:53:58;101269.66;;;17.26;63.37
48848;BME280;36611;51.638;5.784;2022-10-16T07:56:24;101276.38;;;17.32;63.66
48848;BME280;36611;51.638;5.784;2022-10-16T07:58:52;101283.22;;;17.36;63.60
48848;BME280;36611;51.638;5.784;2022-10-16T08:01:19;101280.94;;;17.41;63.73
48848;BME280;36611;51.638;5.784;2022-10-16T08:03:48;101281.09;;;17.49;63.48
48848;BME280;36611;51.638;5.784;2022-10-16T08:06:23;101276.50;;;17.59;64.04
48848;BME280;36611;51.638;5.784;2022-10-16T08:08:53;101280.81;;;17.71;63.93
48848;BME280;36611;51.638;5.784;2022-10-16T08:11:20;101283.25;;;17.84;64.21
48848;BME280;36611;51.638;5.784;2022-10-16T08:13:47;101298.97;;;18.00;63.57
48848;BME280;36611;51.638;5.784;2022-10-16T08:16:13;101302.94;;;18.15;63.77
48848;BME280;36611;51.638;5.784;2022-10-16T08:18:40;101301.31;;;18.32;63.64
48848;BME280;36611;51.638;5.784;2022-10-16T08:21:12;101306.28;;;18.46;63.25
48848;BME280;36611;51.638;5.784;2022-10-16T08:23:47;101315.41;;;18.64;63.52
48848;BME280;36611;51.638;5.784;2022-10-16T08:26:25;101311.91;;;18.82;63.14
48848;BME280;36611;51.638;5.784;2022-10-16T08:28:52;101323.00;;;18.98;62.82
48848;BME280;36611;51.638;5.784;2022-10-16T08:31:19;101320.75;;;19.11;62.47
48848;BME280;36611;51.638;5.784;2022-10-16T08:33:46;101323.41;;;19.21;62.43
48848;BME280;36611;51.638;5.784;2022-10-16T08:36:15;101330.50;;;19.31;61.96
48848;BME280;36611;51.638;5.784;2022-10-16T08:38:41;101331.34;;;19.42;61.93
48848;BME280;36611;51.638;5.784;2022-10-16T08:44:46;101344.38;;;19.65;61.39
48848;BME280;36611;51.638;5.784;2022-10-16T08:47:16;101344.84;;;19.79;61.50
48848;BME280;36611;51.638;5.784;2022-10-16T08:49:56;101351.06;;;19.89;61.11
48848;BME280;36611;51.638;5.784;2022-10-16T08:52:30;101345.03;;;20.03;60.86
48848;BME280;36611;51.638;5.784;2022-10-16T08:54:58;101345.34;;;20.18;60.61
48848;BME280;36611;51.638;5.784;2022-10-16T08:57:26;101352.41;;;20.28;60.57
48848;BME280;36611;51.638;5.784;2022-10-16T08:59:53;101358.94;;;20.36;59.95
48848;BME280;36611;51.638;5.784;2022-10-16T09:05:27;101360.75;;;20.45;59.70
48848;BME280;36611;51.638;5.784;2022-10-16T09:10:50;101363.91;;;20.58;59.37
48848;BME280;36611;51.638;5.784;2022-10-16T09:13:28;101371.44;;;20.64;59.38
48848;BME280;36611;51.638;5.784;2022-10-16T09:16:12;101370.78;;;20.70;59.20
48848;BME280;36611;51.638;5.784;2022-10-16T09:21:36;101382.03;;;20.93;58.80
48848;BME280;36611;51.638;5.784;2022-10-16T09:24:25;101393.00;;;21.01;58.61
48848;BME280;36611;51.638;5.784;2022-10-16T09:26:54;101392.16;;;21.09;58.83
48848;BME280;36611;51.638;5.784;2022-10-16T09:29:21;101392.69;;;21.12;58.33
48848;BME280;36611;51.638;5.784;2022-10-16T09:31:50;101391.19;;;21.18;58.28
48848;BME280;36611;51.638;5.784;2022-10-16T09:34:36;101391.94;;;21.28;58.24
48848;BME280;36611;51.638;5.784;2022-10-16T09:37:14;101395.75;;;21.43;58.10
48848;BME280;36611;51.638;5.784;2022-10-16T09:39:48;101386.38;;;21.54;57.98
48848;BME280;36611;51.638;5.784;2022-10-16T09:42:20;101389.69;;;21.66;57.75
48848;BME280;36611;51.638;5.784;2022-10-16T09:44:49;101393.97;;;21.76;57.74
48848;BME280;36611;51.638;5.784;2022-10-16T09:47:29;101401.16;;;21.85;57.04
48848;BME280;36611;51.638;5.784;2022-10-16T09:50:01;101396.38;;;21.96;57.05
48848;BME280;36611;51.638;5.784;2022-10-16T09:52:29;101396.56;;;22.02;56.61
48848;BME280;36611;51.638;5.784;2022-10-16T09:55:02;101391.47;;;22.07;56.21
48848;BME280;36611;51.638;5.784;2022-10-16T09:57:59;101401.38;;;22.16;56.24
48848;BME280;36611;51.638;5.784;2022-10-16T10:00:25;101400.00;;;22.29;56.22
48848;BME280;36611;51.638;5.784;2022-10-16T10:02:53;101397.97;;;22.39;55.99
48848;BME280;36611;51.638;5.784;2022-10-16T10:05:27;101405.50;;;22.45;55.74
48848;BME280;36611;51.638;5.784;2022-10-16T10:07:57;101401.38;;;22.49;55.54
48848;BME280;36611;51.638;5.784;2022-10-16T10:10:27;101407.69;;;22.58;55.37
48848;BME280;36611;51.638;5.784;2022-10-16T10:12:55;101405.28;;;22.71;55.44
48848;BME280;36611;51.638;5.784;2022-10-16T10:15:25;101415.72;;;22.83;55.21
48848;BME280;36611;51.638;5.784;2022-10-16T10:17:56;101409.72;;;22.88;54.78
48848;BME280;36611;51.638;5.784;2022-10-16T10:20:34;101419.13;;;22.94;54.67
48848;BME280;36611;51.638;5.784;2022-10-16T10:23:22;101414.81;;;22.99;54.39
48848;BME280;36611;51.638;5.784;2022-10-16T10:26:09;101408.84;;;23.04;54.19
48848;BME280;36611;51.638;5.784;2022-10-16T10:31:43;101423.69;;;23.18;53.66
48848;BME280;36611;51.638;5.784;2022-10-16T10:34:35;101429.00;;;23.19;53.43
48848;BME280;36611;51.638;5.784;2022-10-16T10:45:27;101445.97;;;23.14;52.06
48848;BME280;36611;51.638;5.784;2022-10-16T10:51:18;101434.31;;;23.12;52.06
48848;BME280;36611;51.638;5.784;2022-10-16T10:54:25;101438.97;;;23.04;51.71
48848;BME280;36611;51.638;5.784;2022-10-16T11:00:28;101444.78;;;22.93;51.61
48848;BME280;36611;51.638;5.784;2022-10-16T11:05:49;101437.97;;;22.89;51.39
48848;BME280;36611;51.638;5.784;2022-10-16T11:08:23;101439.66;;;22.90;51.15
48848;BME280;36611;51.638;5.784;2022-10-16T11:10:56;101442.06;;;22.93;51.29
48848;BME280;36611;51.638;5.784;2022-10-16T11:13:38;101445.81;;;23.00;51.27
48848;BME280;36611;51.638;5.784;2022-10-16T11:16:39;101449.59;;;23.07;51.01
48848;BME280;36611;51.638;5.784;2022-10-16T11:19:28;101449.19;;;23.18;50.86
48848;BME280;36611;51.638;5.784;2022-10-16T11:27:18;101445.44;;;23.19;50.16
48848;BME280;36611;51.638;5.784;2022-10-16T11:29:59;101454.00;;;23.16;49.62
48848;BME280;36611;51.638;5.784;2022-10-16T11:32:43;101448.88;;;23.13;49.83
48848;BME280;36611;51.638;5.784;2022-10-16T11:35:19;101447.84;;;23.14;49.63
48848;BME280;36611;51.638;5.784;2022-10-16T11:37:49;101444.78;;;23.09;49.20
48848;BME280;36611;51.638;5.784;2022-10-16T11:40:29;101454.38;;;23.05;49.22
48848;BME280;36611;51.638;5.784;2022-10-16T11:43:03;101456.75;;;23.00;48.87
48848;BME280;36611;51.638;5.784;2022-10-16T11:53:45;101467.25;;;22.80;48.69
48848;BME280;36611;51.638;5.784;2022-10-16T11:56:30;101468.59;;;22.84;48.98
48848;BME280;36611;51.638;5.784;2022-10-16T11:59:02;101469.97;;;22.88;48.58
48848;BME280;36611;51.638;5.784;2022-10-16T12:01:38;101467.38;;;22.95;48.50
48848;BME280;36611;51.638;5.784;2022-10-16T12:04:15;101468.41;;;23.02;48.52
48848;BME280;36611;51.638;5.784;2022-10-16T12:06:57;101463.28;;;23.07;48.29
48848;BME280;36611;51.638;5.784;2022-10-16T12:09:27;101471.47;;;23.15;48.45
48848;BME280;36611;51.638;5.784;2022-10-16T12:11:54;101466.69;;;23.17;48.30
48848;BME280;36611;51.638;5.784;2022-10-16T12:14:35;101456.06;;;23.14;48.03
48848;BME280;36611;51.638;5.784;2022-10-16T12:17:43;101451.13;;;23.09;47.99
48848;BME280;36611;51.638;5.784;2022-10-16T12:25:26;101473.38;;;22.98;48.20
48848;BME280;36611;51.638;5.784;2022-10-16T12:27:56;101477.81;;;22.99;48.40
48848;BME280;36611;51.638;5.784;2022-10-16T12:30:25;101483.97;;;23.01;48.31
48848;BME280;36611;51.638;5.784;2022-10-16T12:33:01;101482.81;;;23.04;48.19
48848;BME280;36611;51.638;5.784;2022-10-16T12:35:43;101484.84;;;23.10;47.88
48848;BME280;36611;51.638;5.784;2022-10-16T12:38:26;101481.22;;;23.18;47.93
48848;BME280;36611;51.638;5.784;2022-10-16T12:40:59;101483.09;;;23.25;48.14
48848;BME280;36611;51.638;5.784;2022-10-16T12:43:57;101481.34;;;23.32;47.82
48848;BME280;36611;51.638;5.784;2022-10-16T12:46:33;101472.75;;;23.43;47.77
48848;BME280;36611;51.638;5.784;2022-10-16T12:49:22;101471.50;;;23.54;47.24
48848;BME280;36611;51.638;5.784;2022-10-16T12:51:50;101475.56;;;23.66;47.52
48848;BME280;36611;51.638;5.784;2022-10-16T12:54:27;101463.53;;;23.75;47.29
48848;BME280;36611;51.638;5.784;2022-10-16T13:08:03;101479.25;;;24.44;47.26
48848;BME280;36611;51.638;5.784;2022-10-16T13:10:58;101473.75;;;24.44;47.07
48848;BME280;36611;51.638;5.784;2022-10-16T13:22:11;101468.50;;;24.57;46.36
48848;BME280;36611;51.638;5.784;2022-10-16T13:25:08;101469.19;;;24.59;46.17
48848;BME280;36611;51.638;5.784;2022-10-16T13:27:54;101473.34;;;24.55;46.02
48848;BME280;36611;51.638;5.784;2022-10-16T13:30:40;101475.75;;;24.50;45.73
48848;BME280;36611;51.638;5.784;2022-10-16T13:33:14;101473.38;;;24.47;45.69
48848;BME280;36611;51.638;5.784;2022-10-16T13:35:54;101477.53;;;24.43;45.84
48848;BME280;36611;51.638;5.784;2022-10-16T13:38:31;101481.50;;;24.40;45.90
48848;BME280;36611;51.638;5.784;2022-10-16T13:41:03;101472.28;;;24.33;45.83
48848;BME280;36611;51.638;5.784;2022-10-16T13:43:36;101485.72;;;24.28;45.90
48848;BME280;36611;51.638;5.784;2022-10-16T13:46:10;101489.81;;;24.24;46.16
48848;BME280;36611;51.638;5.784;2022-10-16T13:48:37;101493.78;;;24.21;46.56
48848;BME280;36611;51.638;5.784;2022-10-16T13:51:15;101492.25;;;24.19;46.32
48848;BME280;36611;51.638;5.784;2022-10-16T13:53:43;101493.31;;;24.18;46.33
48848;BME280;36611;51.638;5.784;2022-10-16T13:56:15;101491.97;;;24.14;46.13
48848;BME280;36611;51.638;5.784;2022-10-16T13:58:42;101492.19;;;24.04;46.12
48848;BME280;36611;51.638;5.784;2022-10-16T14:01:25;101496.53;;;23.98;46.13
48848;BME280;36611;51.638;5.784;2022-10-16T14:04:04;101498.78;;;23.95;46.41
48848;BME280;36611;51.638;5.784;2022-10-16T14:06:32;101496.75;;;23.89;46.54
48848;BME280;36611;51.638;5.784;2022-10-16T14:09:21;101491.97;;;23.83;46.61
48848;BME280;36611;51.638;5.784;2022-10-16T14:11:50;101489.75;;;23.78;46.74
48848;BME280;36611;51.638;5.784;2022-10-16T14:14:21;101487.53;;;23.73;46.74
48848;BME280;36611;51.638;5.784;2022-10-16T14:16:48;101496.13;;;23.70;46.86
48848;BME280;36611;51.638;5.784;2022-10-16T14:21:47;101499.91;;;23.69;47.23
48848;BME280;36611;51.638;5.784;2022-10-16T14:24:41;101496.31;;;23.69;47.16
48848;BME280;36611;51.638;5.784;2022-10-16T14:27:37;101495.28;;;23.70;47.14
48848;BME280;36611;51.638;5.784;2022-10-16T14:30:15;101498.19;;;23.68;47.28
48848;BME280;36611;51.638;5.784;2022-10-16T14:33:03;101492.88;;;23.67;47.27
48848;BME280;36611;51.638;5.784;2022-10-16T14:35:38;101477.81;;;23.63;47.31
48848;BME280;36611;51.638;5.784;2022-10-16T14:38:06;101479.41;;;23.57;47.28